PWSweather.com
Personal Weather Stations
Station Observations
SAPNIPWS
Under The Roof, NifferFR 68680

Under The RoofNifferFR 68680

Lat: 47.71640755035946, Lon: 7.509909434952977

Elevation: 762.5932

Station Type: Netatmo

Latest ConditionsUpdated 4:19:00 PM GMT+01:01 Saturday, Mar 23, 2019
Currently Today's Max Today's Min Today's Average
Temperature 64.6°F18.1°C 64.6°F18.1°C 39.0°F3.9°C 48.7°F9.3°C
Dew Point 39.4°F4.1°C 40.1°F4.5°C 30.0°F-1.1°C 34.0°F1.1°C
Winds 1.8 mph WNW2.9 kmh WNW 3.1 mph -5.0 kmh - - 1.9 mph 3.1 kmh
Wind Gusts 4.3 mph6.9 kmh 7.4 mph11.9 kmh - -
Humidity 38% 77% 37% 62%
Pressure 30.39 in1029.1 mb 30.48 in1032.2 mb 30.38 in1028.8 mb -
Hour Temp Dew Point Humidity Winds Wind Gusts Pressure Precip Precip Rate Daily Precip Total
04:19 PM 64.6°F18.1°C 39.4°F4.1°C 38% 1.8 mph WNW2.9 kmh WNW 4.3 mph6.9 kmh 30.39 in1029.1 mb 0.00 in0.0 mm 0.00 in0.0 mm 0.00 in0.0 mm
04:09 PM 64.6°F18.1°C 39.4°F4.1°C 38% 2.5 mph W4.0 kmh W 5.6 mph9.0 kmh 30.39 in1029.1 mb 0.00 in0.0 mm 0.00 in0.0 mm 0.00 in0.0 mm
03:59 PM 64.6°F18.1°C 39.4°F4.1°C 38% 1.8 mph W2.9 kmh W 4.9 mph7.9 kmh 30.38 in1028.8 mb 0.00 in0.0 mm 0.00 in0.0 mm 0.00 in0.0 mm
03:49 PM 64.6°F18.1°C 39.0°F3.9°C 37% 1.8 mph W2.9 kmh W 4.9 mph7.9 kmh 30.39 in1029.1 mb 0.00 in0.0 mm 0.00 in0.0 mm 0.00 in0.0 mm
03:39 PM 64.6°F18.1°C 39.7°F4.3°C 39% 1.8 mph NW2.9 kmh NW 4.9 mph7.9 kmh 30.39 in1029.1 mb 0.00 in0.0 mm 0.00 in0.0 mm 0.00 in0.0 mm
03:28 PM 64.4°F18.0°C 38.8°F3.8°C 37% 1.8 mph W2.9 kmh W 4.9 mph7.9 kmh 30.39 in1029.1 mb 0.00 in0.0 mm 0.00 in0.0 mm 0.00 in0.0 mm
03:18 PM 64.4°F18.0°C 40.1°F4.5°C 40% 2.5 mph NW4.0 kmh NW 4.9 mph7.9 kmh 30.39 in1029.1 mb 0.00 in0.0 mm 0.00 in0.0 mm 0.00 in0.0 mm
03:08 PM 64.2°F17.9°C 39.9°F4.4°C 40% 1.8 mph WNW2.9 kmh WNW 5.6 mph9.0 kmh 30.39 in1029.1 mb 0.00 in0.0 mm 0.00 in0.0 mm 0.00 in0.0 mm
02:59 PM 64.0°F17.8°C 39.7°F4.3°C 40% 0.7 mph NW1.1 kmh NW 4.3 mph6.9 kmh 30.40 in1029.5 mb 0.00 in0.0 mm 0.00 in0.0 mm 0.00 in0.0 mm
02:48 PM 63.9°F17.7°C 39.6°F4.2°C 40% 1.8 mph NW2.9 kmh NW 4.3 mph6.9 kmh 30.40 in1029.5 mb 0.00 in0.0 mm 0.00 in0.0 mm 0.00 in0.0 mm
02:38 PM 63.5°F17.5°C 39.6°F4.2°C 41% 1.8 mph W2.9 kmh W 4.3 mph6.9 kmh 30.40 in1029.5 mb 0.00 in0.0 mm 0.00 in0.0 mm 0.00 in0.0 mm
02:28 PM 63.3°F17.4°C 37.8°F3.2°C 37% 2.5 mph W4.0 kmh W 4.9 mph7.9 kmh 30.40 in1029.5 mb 0.00 in0.0 mm 0.00 in0.0 mm 0.00 in0.0 mm
02:18 PM 63.0°F17.2°C 37.6°F3.1°C 37% 1.8 mph W2.9 kmh W 5.6 mph9.0 kmh 30.41 in1029.8 mb 0.00 in0.0 mm 0.00 in0.0 mm 0.00 in0.0 mm
02:08 PM 62.4°F16.9°C 38.3°F3.5°C 40% 3.1 mph NNW5.0 kmh NNW 7.4 mph11.9 kmh 30.41 in1029.8 mb 0.00 in0.0 mm 0.00 in0.0 mm 0.00 in0.0 mm
01:58 PM 62.2°F16.8°C 38.5°F3.6°C 41% 1.8 mph ESE2.9 kmh ESE 4.3 mph6.9 kmh 30.41 in1029.8 mb 0.00 in0.0 mm 0.00 in0.0 mm 0.00 in0.0 mm
01:48 PM 62.1°F16.7°C 38.3°F3.5°C 41% 2.5 mph W4.0 kmh W 4.9 mph7.9 kmh 30.41 in1029.8 mb 0.00 in0.0 mm 0.00 in0.0 mm 0.00 in0.0 mm
01:37 PM 61.7°F16.5°C 38.5°F3.6°C 42% 1.8 mph NW2.9 kmh NW 4.9 mph7.9 kmh 30.42 in1030.1 mb 0.00 in0.0 mm 0.00 in0.0 mm 0.00 in0.0 mm
01:27 PM 61.5°F16.4°C 38.7°F3.7°C 43% 0.7 mph NW1.1 kmh NW 3.1 mph5.0 kmh 30.42 in1030.1 mb 0.00 in0.0 mm 0.00 in0.0 mm 0.00 in0.0 mm
01:17 PM 60.8°F16.0°C 37.9°F3.3°C 43% 1.8 mph NE2.9 kmh NE 4.3 mph6.9 kmh 30.43 in1030.5 mb 0.00 in0.0 mm 0.00 in0.0 mm 0.00 in0.0 mm
01:07 PM 60.8°F16.0°C 38.3°F3.5°C 44% 2.5 mph WNW4.0 kmh WNW 4.9 mph7.9 kmh 30.43 in1030.5 mb 0.00 in0.0 mm 0.00 in0.0 mm 0.00 in0.0 mm
12:57 PM 60.3°F15.7°C 38.3°F3.5°C 45% 1.8 mph WNW2.9 kmh WNW 4.9 mph7.9 kmh 30.44 in1030.8 mb 0.00 in0.0 mm 0.00 in0.0 mm 0.00 in0.0 mm
12:47 PM 59.9°F15.5°C 37.6°F3.1°C 44% 0.7 mph E1.1 kmh E 4.3 mph6.9 kmh 30.44 in1030.8 mb 0.00 in0.0 mm 0.00 in0.0 mm 0.00 in0.0 mm
12:37 PM 59.5°F15.3°C 37.6°F3.1°C 45% 1.8 mph SE2.9 kmh SE 4.3 mph6.9 kmh 30.44 in1030.8 mb 0.00 in0.0 mm 0.00 in0.0 mm 0.00 in0.0 mm
12:26 PM 59.0°F15.0°C 37.2°F2.9°C 45% 1.8 mph ESE2.9 kmh ESE 3.1 mph5.0 kmh 30.44 in1030.8 mb 0.00 in0.0 mm 0.00 in0.0 mm 0.00 in0.0 mm
12:17 PM 58.5°F14.7°C 36.7°F2.6°C 45% 0.7 mph E1.1 kmh E 4.3 mph6.9 kmh 30.45 in1031.2 mb 0.00 in0.0 mm 0.00 in0.0 mm 0.00 in0.0 mm
12:07 PM 57.6°F14.2°C 37.8°F3.2°C 50% 1.8 mph SE2.9 kmh SE 4.3 mph6.9 kmh 30.45 in1031.2 mb 0.00 in0.0 mm 0.00 in0.0 mm 0.00 in0.0 mm
11:57 AM 56.8°F13.8°C 37.6°F3.1°C 51% 0.7 mph 1.1 kmh 2.5 mph4.0 kmh 30.45 in1031.2 mb 0.00 in0.0 mm 0.00 in0.0 mm 0.00 in0.0 mm
11:46 AM 56.5°F13.6°C 37.6°F3.1°C 52% 0.7 mph NE1.1 kmh NE 3.1 mph5.0 kmh 30.45 in1031.2 mb 0.00 in0.0 mm 0.00 in0.0 mm 0.00 in0.0 mm
11:36 AM 55.6°F13.1°C 37.2°F2.9°C 53% 0.7 mph NW1.1 kmh NW 3.1 mph5.0 kmh 30.45 in1031.2 mb 0.00 in0.0 mm 0.00 in0.0 mm 0.00 in0.0 mm
11:27 AM 55.0°F12.8°C 37.0°F2.8°C 54% 0.7 mph SE1.1 kmh SE 2.5 mph4.0 kmh 30.45 in1031.2 mb 0.00 in0.0 mm 0.00 in0.0 mm 0.00 in0.0 mm
11:16 AM 54.1°F12.3°C 37.0°F2.8°C 56% 1.8 mph S2.9 kmh S 3.1 mph5.0 kmh 30.46 in1031.5 mb 0.00 in0.0 mm 0.00 in0.0 mm 0.00 in0.0 mm
11:06 AM 53.4°F11.9°C 36.3°F2.4°C 56% 1.8 mph SE2.9 kmh SE 4.3 mph6.9 kmh 30.46 in1031.5 mb 0.00 in0.0 mm 0.00 in0.0 mm 0.00 in0.0 mm
10:56 AM 52.9°F11.6°C 36.3°F2.4°C 57% 1.8 mph SE2.9 kmh SE 4.3 mph6.9 kmh 30.46 in1031.5 mb 0.00 in0.0 mm 0.00 in0.0 mm 0.00 in0.0 mm
10:46 AM 51.8°F11.0°C 36.0°F2.2°C 59% 1.8 mph N2.9 kmh N 4.3 mph6.9 kmh 30.46 in1031.5 mb 0.00 in0.0 mm 0.00 in0.0 mm 0.00 in0.0 mm
10:36 AM 51.3°F10.7°C 36.3°F2.4°C 61% 2.5 mph NW4.0 kmh NW 6.3 mph10.1 kmh 30.47 in1031.8 mb 0.00 in0.0 mm 0.00 in0.0 mm 0.00 in0.0 mm
10:26 AM 50.5°F10.3°C 36.7°F2.6°C 64% 1.8 mph WSW2.9 kmh WSW 4.9 mph7.9 kmh 30.47 in1031.8 mb 0.00 in0.0 mm 0.00 in0.0 mm 0.00 in0.0 mm
10:16 AM 49.8°F9.9°C 36.5°F2.5°C 65% 1.8 mph SW2.9 kmh SW 4.3 mph6.9 kmh 30.47 in1031.8 mb 0.00 in0.0 mm 0.00 in0.0 mm 0.00 in0.0 mm
10:06 AM 49.1°F9.5°C 36.1°F2.3°C 66% 1.8 mph S2.9 kmh S 3.1 mph5.0 kmh 30.47 in1031.8 mb 0.00 in0.0 mm 0.00 in0.0 mm 0.00 in0.0 mm
09:56 AM 48.4°F9.1°C 35.4°F1.9°C 66% 1.8 mph S2.9 kmh S 4.3 mph6.9 kmh 30.47 in1031.8 mb 0.00 in0.0 mm 0.00 in0.0 mm 0.00 in0.0 mm
09:46 AM 47.7°F8.7°C 35.2°F1.8°C 67% 1.8 mph S2.9 kmh S 4.3 mph6.9 kmh 30.48 in1032.2 mb 0.00 in0.0 mm 0.00 in0.0 mm 0.00 in0.0 mm
09:36 AM 46.9°F8.3°C 34.9°F1.6°C 68% 2.5 mph S4.0 kmh S 4.9 mph7.9 kmh 30.47 in1031.8 mb 0.00 in0.0 mm 0.00 in0.0 mm 0.00 in0.0 mm
09:25 AM 46.2°F7.9°C 34.5°F1.4°C 69% 2.5 mph S4.0 kmh S 4.9 mph7.9 kmh 30.47 in1031.8 mb 0.00 in0.0 mm 0.00 in0.0 mm 0.00 in0.0 mm
09:15 AM 45.5°F7.5°C 34.3°F1.3°C 70% 1.8 mph S2.9 kmh S 4.9 mph7.9 kmh 30.47 in1031.8 mb 0.00 in0.0 mm 0.00 in0.0 mm 0.00 in0.0 mm
09:06 AM 45.0°F7.2°C 33.8°F1.0°C 70% 2.5 mph S4.0 kmh S 5.6 mph9.0 kmh 30.47 in1031.8 mb 0.00 in0.0 mm 0.00 in0.0 mm 0.00 in0.0 mm
08:55 AM 44.4°F6.9°C 33.6°F0.9°C 71% 2.5 mph S4.0 kmh S 4.9 mph7.9 kmh 30.47 in1031.8 mb 0.00 in0.0 mm 0.00 in0.0 mm 0.00 in0.0 mm
08:45 AM 43.7°F6.5°C 33.3°F0.7°C 72% 1.8 mph SSW2.9 kmh SSW 4.3 mph6.9 kmh 30.47 in1031.8 mb 0.00 in0.0 mm 0.00 in0.0 mm 0.00 in0.0 mm
08:36 AM 43.2°F6.2°C 32.7°F0.4°C 72% 2.5 mph S4.0 kmh S 4.9 mph7.9 kmh 30.48 in1032.2 mb 0.00 in0.0 mm 0.00 in0.0 mm 0.00 in0.0 mm
08:26 AM 42.4°F5.8°C 32.4°F0.2°C 73% 2.5 mph S4.0 kmh S 4.9 mph7.9 kmh 30.47 in1031.8 mb 0.00 in0.0 mm 0.00 in0.0 mm 0.00 in0.0 mm
08:15 AM 41.9°F5.5°C 32.4°F0.2°C 74% 2.5 mph S4.0 kmh S 4.9 mph7.9 kmh 30.47 in1031.8 mb 0.00 in0.0 mm 0.00 in0.0 mm 0.00 in0.0 mm
08:05 AM 41.4°F5.2°C 32.2°F0.1°C 75% 2.5 mph SSW4.0 kmh SSW 6.3 mph10.1 kmh 30.47 in1031.8 mb 0.00 in0.0 mm 0.00 in0.0 mm 0.00 in0.0 mm
07:56 AM 41.0°F5.0°C 31.8°F-0.1°C 75% 2.5 mph S4.0 kmh S 4.9 mph7.9 kmh 30.47 in1031.8 mb 0.00 in0.0 mm 0.00 in0.0 mm 0.00 in0.0 mm
07:45 AM 40.6°F4.8°C 31.5°F-0.3°C 75% 2.5 mph S4.0 kmh S 5.6 mph9.0 kmh 30.47 in1031.8 mb 0.00 in0.0 mm 0.00 in0.0 mm 0.00 in0.0 mm
07:35 AM 40.3°F4.6°C 31.5°F-0.3°C 76% 2.5 mph S4.0 kmh S 5.6 mph9.0 kmh 30.47 in1031.8 mb 0.00 in0.0 mm 0.00 in0.0 mm 0.00 in0.0 mm
07:25 AM 40.1°F4.5°C 31.3°F-0.4°C 76% 2.5 mph S4.0 kmh S 4.9 mph7.9 kmh 30.47 in1031.8 mb 0.00 in0.0 mm 0.00 in0.0 mm 0.00 in0.0 mm
07:15 AM 39.7°F4.3°C 30.9°F-0.6°C 76% 2.5 mph S4.0 kmh S 4.3 mph6.9 kmh 30.47 in1031.8 mb 0.00 in0.0 mm 0.00 in0.0 mm 0.00 in0.0 mm
07:05 AM 39.2°F4.0°C 30.7°F-0.7°C 77% 2.5 mph SSW4.0 kmh SSW 4.3 mph6.9 kmh 30.47 in1031.8 mb 0.00 in0.0 mm 0.00 in0.0 mm 0.00 in0.0 mm
06:55 AM 39.0°F3.9°C 30.2°F-1.0°C 76% 2.5 mph S4.0 kmh S 4.9 mph7.9 kmh 30.46 in1031.5 mb 0.00 in0.0 mm 0.00 in0.0 mm 0.00 in0.0 mm
06:45 AM 39.0°F3.9°C 30.2°F-1.0°C 76% 2.5 mph SSW4.0 kmh SSW 4.9 mph7.9 kmh 30.46 in1031.5 mb 0.00 in0.0 mm 0.00 in0.0 mm 0.00 in0.0 mm
06:35 AM 39.2°F4.0°C 30.4°F-0.9°C 76% 2.5 mph SSW4.0 kmh SSW 4.3 mph6.9 kmh 30.46 in1031.5 mb 0.00 in0.0 mm 0.00 in0.0 mm 0.00 in0.0 mm
06:25 AM 39.2°F4.0°C 30.4°F-0.9°C 76% 2.5 mph SSW4.0 kmh SSW 4.3 mph6.9 kmh 30.47 in1031.8 mb 0.00 in0.0 mm 0.00 in0.0 mm 0.00 in0.0 mm
06:15 AM 39.4°F4.1°C 30.6°F-0.8°C 76% 2.5 mph SSW4.0 kmh SSW 4.9 mph7.9 kmh 30.47 in1031.8 mb 0.00 in0.0 mm 0.00 in0.0 mm 0.00 in0.0 mm
06:05 AM 39.4°F4.1°C 30.6°F-0.8°C 76% 2.5 mph SSW4.0 kmh SSW 4.9 mph7.9 kmh 30.46 in1031.5 mb 0.00 in0.0 mm 0.00 in0.0 mm 0.00 in0.0 mm
05:55 AM 39.4°F4.1°C 30.6°F-0.8°C 76% 2.5 mph S4.0 kmh S 4.3 mph6.9 kmh 30.46 in1031.5 mb 0.00 in0.0 mm 0.00 in0.0 mm 0.00 in0.0 mm
05:45 AM 39.6°F4.2°C 30.7°F-0.7°C 76% 2.5 mph S4.0 kmh S 6.3 mph10.1 kmh 30.46 in1031.5 mb 0.00 in0.0 mm 0.00 in0.0 mm 0.00 in0.0 mm
05:35 AM 39.6°F4.2°C 30.4°F-0.9°C 75% 2.5 mph S4.0 kmh S 4.3 mph6.9 kmh 30.46 in1031.5 mb 0.00 in0.0 mm 0.00 in0.0 mm 0.00 in0.0 mm
05:24 AM 39.7°F4.3°C 30.6°F-0.8°C 75% 2.5 mph S4.0 kmh S 4.9 mph7.9 kmh 30.46 in1031.5 mb 0.00 in0.0 mm 0.00 in0.0 mm 0.00 in0.0 mm
05:15 AM 39.9°F4.4°C 30.4°F-0.9°C 74% 2.5 mph SSW4.0 kmh SSW 4.3 mph6.9 kmh 30.46 in1031.5 mb 0.00 in0.0 mm 0.00 in0.0 mm 0.00 in0.0 mm
05:05 AM 40.1°F4.5°C 30.6°F-0.8°C 74% 2.5 mph SSW4.0 kmh SSW 4.3 mph6.9 kmh 30.46 in1031.5 mb 0.00 in0.0 mm 0.00 in0.0 mm 0.00 in0.0 mm
04:54 AM 40.3°F4.6°C 30.4°F-0.9°C 73% 1.8 mph SSW2.9 kmh SSW 3.1 mph5.0 kmh 30.46 in1031.5 mb 0.00 in0.0 mm 0.00 in0.0 mm 0.00 in0.0 mm
04:44 AM 40.6°F4.8°C 30.4°F-0.9°C 72% 1.8 mph SW2.9 kmh SW 2.5 mph4.0 kmh 30.47 in1031.8 mb 0.00 in0.0 mm 0.00 in0.0 mm 0.00 in0.0 mm
04:35 AM 40.6°F4.8°C 30.4°F-0.9°C 72% 1.8 mph SSW2.9 kmh SSW 2.5 mph4.0 kmh 30.47 in1031.8 mb 0.00 in0.0 mm 0.00 in0.0 mm 0.00 in0.0 mm
04:25 AM 40.8°F4.9°C 30.6°F-0.8°C 72% 1.8 mph SSW2.9 kmh SSW 2.5 mph4.0 kmh 30.46 in1031.5 mb 0.00 in0.0 mm 0.00 in0.0 mm 0.00 in0.0 mm
04:14 AM 41.0°F5.0°C 30.7°F-0.7°C 72% 1.8 mph W2.9 kmh W 3.1 mph5.0 kmh 30.46 in1031.5 mb 0.00 in0.0 mm 0.00 in0.0 mm 0.00 in0.0 mm
04:04 AM 41.0°F5.0°C 30.7°F-0.7°C 72% 1.8 mph SSW2.9 kmh SSW 3.1 mph5.0 kmh 30.47 in1031.8 mb 0.00 in0.0 mm 0.00 in0.0 mm 0.00 in0.0 mm
03:54 AM 41.0°F5.0°C 31.1°F-0.5°C 73% 1.8 mph S2.9 kmh S 4.3 mph6.9 kmh 30.46 in1031.5 mb 0.00 in0.0 mm 0.00 in0.0 mm 0.00 in0.0 mm
03:44 AM 41.2°F5.1°C 31.3°F-0.4°C 73% 1.8 mph SSW2.9 kmh SSW 3.1 mph5.0 kmh 30.47 in1031.8 mb 0.00 in0.0 mm 0.00 in0.0 mm 0.00 in0.0 mm
03:34 AM 41.2°F5.1°C 30.9°F-0.6°C 72% 1.8 mph SSW2.9 kmh SSW 4.3 mph6.9 kmh 30.46 in1031.5 mb 0.00 in0.0 mm 0.00 in0.0 mm 0.00 in0.0 mm
03:24 AM 41.2°F5.1°C 30.9°F-0.6°C 72% 1.8 mph SSW2.9 kmh SSW 3.1 mph5.0 kmh 30.47 in1031.8 mb 0.00 in0.0 mm 0.00 in0.0 mm 0.00 in0.0 mm
03:14 AM 41.0°F5.0°C 30.7°F-0.7°C 72% 1.8 mph SSW2.9 kmh SSW 3.1 mph5.0 kmh 30.46 in1031.5 mb 0.00 in0.0 mm 0.00 in0.0 mm 0.00 in0.0 mm
03:04 AM 41.0°F5.0°C 30.7°F-0.7°C 72% 2.5 mph SSW4.0 kmh SSW 4.3 mph6.9 kmh 30.46 in1031.5 mb 0.00 in0.0 mm 0.00 in0.0 mm 0.00 in0.0 mm
02:54 AM 40.8°F4.9°C 30.2°F-1.0°C 71% 1.8 mph SSW2.9 kmh SSW 4.3 mph6.9 kmh 30.47 in1031.8 mb 0.00 in0.0 mm 0.00 in0.0 mm 0.00 in0.0 mm
02:44 AM 41.0°F5.0°C 30.0°F-1.1°C 70% 1.8 mph SW2.9 kmh SW 4.3 mph6.9 kmh 30.46 in1031.5 mb 0.00 in0.0 mm 0.00 in0.0 mm 0.00 in0.0 mm
02:34 AM 41.4°F5.2°C 30.2°F-1.0°C 70% 1.8 mph NW2.9 kmh NW 3.1 mph5.0 kmh 30.47 in1031.8 mb 0.00 in0.0 mm 0.00 in0.0 mm 0.00 in0.0 mm
02:24 AM 41.7°F5.4°C 30.6°F-0.8°C 70% 1.8 mph SSW2.9 kmh SSW 3.1 mph5.0 kmh 30.47 in1031.8 mb 0.00 in0.0 mm 0.00 in0.0 mm 0.00 in0.0 mm
02:14 AM 42.3°F5.7°C 30.7°F-0.7°C 69% 1.8 mph SW2.9 kmh SW 4.3 mph6.9 kmh 30.46 in1031.5 mb 0.00 in0.0 mm 0.00 in0.0 mm 0.00 in0.0 mm
02:04 AM 42.4°F5.8°C 31.3°F-0.4°C 70% 1.8 mph SSW2.9 kmh SSW 2.5 mph4.0 kmh 30.47 in1031.8 mb 0.00 in0.0 mm 0.00 in0.0 mm 0.00 in0.0 mm
01:53 AM 42.6°F5.9°C 31.5°F-0.3°C 70% 1.8 mph SW2.9 kmh SW 2.5 mph4.0 kmh 30.46 in1031.5 mb 0.00 in0.0 mm 0.00 in0.0 mm 0.00 in0.0 mm
01:44 AM 42.6°F5.9°C 31.1°F-0.5°C 69% 1.8 mph SSW2.9 kmh SSW 2.5 mph4.0 kmh 30.46 in1031.5 mb 0.00 in0.0 mm 0.00 in0.0 mm 0.00 in0.0 mm
01:34 AM 42.8°F6.0°C 30.9°F-0.6°C 68% 1.8 mph SSW2.9 kmh SSW 2.5 mph4.0 kmh 30.46 in1031.5 mb 0.00 in0.0 mm 0.00 in0.0 mm 0.00 in0.0 mm
01:23 AM 43.0°F6.1°C 31.1°F-0.5°C 68% 0.7 mph SW1.1 kmh SW 3.1 mph5.0 kmh 30.47 in1031.8 mb 0.00 in0.0 mm 0.00 in0.0 mm 0.00 in0.0 mm
01:13 AM 43.2°F6.2°C 31.3°F-0.4°C 68% 1.8 mph SW2.9 kmh SW 2.5 mph4.0 kmh 30.46 in1031.5 mb 0.00 in0.0 mm 0.00 in0.0 mm 0.00 in0.0 mm
01:04 AM 43.3°F6.3°C 31.5°F-0.3°C 68% 1.8 mph SW2.9 kmh SW 2.5 mph4.0 kmh 30.46 in1031.5 mb 0.00 in0.0 mm 0.00 in0.0 mm 0.00 in0.0 mm
12:54 AM 43.9°F6.6°C 31.6°F-0.2°C 67% 1.8 mph S2.9 kmh S 2.5 mph4.0 kmh 30.46 in1031.5 mb 0.00 in0.0 mm 0.00 in0.0 mm 0.00 in0.0 mm
12:43 AM 44.1°F6.7°C 32.2°F0.1°C 68% 1.8 mph SSW2.9 kmh SSW 2.5 mph4.0 kmh 30.46 in1031.5 mb 0.00 in0.0 mm 0.00 in0.0 mm 0.00 in0.0 mm
12:33 AM 44.2°F6.8°C 31.5°F-0.3°C 66% 1.8 mph SW2.9 kmh SW 4.3 mph6.9 kmh 30.46 in1031.5 mb 0.00 in0.0 mm 0.00 in0.0 mm 0.00 in0.0 mm
12:23 AM 44.8°F7.1°C 31.6°F-0.2°C 65% 1.8 mph SW2.9 kmh SW 2.5 mph4.0 kmh 30.46 in1031.5 mb 0.00 in0.0 mm 0.00 in0.0 mm 0.00 in0.0 mm
12:13 AM 45.0°F7.2°C 31.8°F-0.1°C 65% 1.8 mph SW2.9 kmh SW 4.3 mph6.9 kmh 30.47 in1031.8 mb 0.00 in0.0 mm 0.00 in0.0 mm 0.00 in0.0 mm
12:03 AM 45.1°F7.3°C 32.0°F0.0°C 65% 1.8 mph SSW2.9 kmh SSW 3.1 mph5.0 kmh 30.46 in1031.5 mb 0.00 in0.0 mm 0.00 in0.0 mm 0.00 in0.0 mm